createdAt,value
2023-02-18T00:01:21.465Z,11.43
2023-02-18T00:05:27.842Z,9.37
2023-02-18T00:09:20.300Z,14.43
2023-02-18T00:12:38.433Z,17.40
2023-02-18T00:15:43.688Z,9.27
2023-02-18T00:18:47.595Z,11.73
2023-02-18T00:21:51.390Z,7.20
2023-02-18T00:24:55.297Z,9.07
2023-02-18T00:27:59.251Z,12.83
2023-02-18T00:31:09.355Z,9.77
2023-02-18T00:34:14.746Z,11.33
2023-02-18T00:37:18.493Z,13.73
2023-02-18T00:40:22.547Z,8.67
2023-02-18T00:43:26.543Z,9.33
2023-02-18T00:46:32.276Z,9.10
2023-02-18T00:49:36.405Z,10.00
2023-02-18T00:52:40.252Z,15.17
2023-02-18T00:55:45.551Z,11.23
2023-02-18T00:58:49.946Z,9.67
2023-02-18T01:01:55.208Z,9.77
2023-02-18T01:04:59.247Z,12.67
2023-02-18T01:08:03.332Z,19.37
2023-02-18T01:11:08.088Z,8.33
2023-02-18T01:14:11.924Z,10.00
2023-02-18T01:17:17.262Z,12.77
2023-02-18T01:20:22.042Z,13.23
2023-02-18T01:23:26.562Z,10.03
2023-02-18T01:26:30.528Z,10.23
2023-02-18T01:29:34.391Z,9.70
2023-02-18T01:32:40.248Z,10.63
2023-02-18T01:35:44.200Z,9.23
2023-02-18T01:38:58.808Z,12.60
2023-02-18T01:42:58.936Z,9.07
2023-02-18T01:47:03.571Z,14.13
2023-02-18T01:51:09.649Z,10.93
2023-02-18T01:54:41.313Z,9.97
2023-02-18T01:58:30.584Z,9.10
2023-02-18T02:02:35.324Z,10.73
2023-02-18T02:06:38.008Z,14.23
2023-02-18T02:10:44.185Z,11.30
2023-02-18T02:15:04.898Z,11.50
2023-02-18T02:19:27.960Z,9.30
2023-02-18T02:23:58.303Z,8.97
2023-02-18T02:28:38.269Z,12.67
2023-02-18T02:33:16.594Z,11.37
2023-02-18T02:37:32.112Z,9.53
2023-02-18T02:41:48.808Z,9.73
2023-02-18T02:45:54.488Z,8.63
2023-02-18T02:49:20.791Z,7.37
2023-02-18T02:53:28.930Z,5.87
2023-02-18T02:57:56.399Z,4.47
2023-02-18T03:02:03.895Z,9.33
2023-02-18T03:06:24.104Z,9.47
2023-02-18T03:11:00.915Z,7.30
2023-02-18T03:15:18.528Z,7.00
2023-02-18T03:19:17.436Z,9.13
2023-02-18T03:23:17.662Z,10.13
2023-02-18T03:27:17.536Z,12.80
2023-02-18T03:31:19.887Z,7.17
2023-02-18T03:34:54.348Z,10.57
2023-02-18T03:38:45.533Z,9.43
2023-02-18T03:42:53.438Z,11.10
2023-02-18T03:46:29.761Z,5.70
2023-02-18T03:49:40.450Z,9.83
2023-02-18T03:53:35.696Z,5.40
2023-02-18T03:56:47.706Z,7.57
2023-02-18T04:00:50.592Z,7.07
2023-02-18T04:04:46.510Z,9.37
2023-02-18T04:08:50.292Z,5.90
2023-02-18T04:12:44.099Z,9.07
2023-02-18T04:16:45.169Z,9.67
2023-02-18T04:20:45.294Z,6.70
2023-02-18T04:24:44.797Z,10.43
2023-02-18T04:28:46.173Z,12.70
2023-02-18T04:33:01.155Z,8.57
2023-02-18T04:37:29.093Z,10.90
2023-02-18T04:41:37.354Z,8.07
2023-02-18T04:45:32.428Z,14.83
2023-02-18T04:50:00.244Z,14.87
2023-02-18T04:53:25.369Z,10.67
2023-02-18T04:56:32.582Z,6.67
2023-02-18T04:59:36.386Z,6.33
2023-02-18T05:02:40.282Z,12.67
2023-02-18T05:05:45.950Z,9.93
2023-02-18T05:08:49.743Z,8.93
2023-02-18T05:11:53.504Z,10.40
2023-02-18T05:14:57.354Z,6.00
2023-02-18T05:18:10.294Z,10.00
2023-02-18T05:21:15.768Z,5.33
2023-02-18T05:24:19.545Z,8.03
2023-02-18T05:27:23.404Z,9.07
2023-02-18T05:30:27.181Z,9.37
2023-02-18T05:33:30.982Z,8.50
2023-02-18T05:36:36.460Z,12.43
2023-02-18T05:39:40.625Z,6.30
2023-02-18T05:42:44.775Z,13.00
2023-02-18T05:45:48.687Z,10.63
2023-02-18T05:48:52.662Z,9.07
2023-02-18T05:51:58.252Z,14.33
2023-02-18T05:55:02.044Z,9.20
2023-02-18T05:58:06.083Z,11.57
2023-02-18T06:01:09.958Z,11.80
2023-02-18T06:04:14.316Z,7.97
2023-02-18T06:07:20.753Z,8.90
2023-02-18T06:10:24.637Z,11.87
2023-02-18T06:13:28.706Z,12.00
2023-02-18T06:16:33.117Z,12.40
2023-02-18T06:19:36.920Z,10.63
2023-02-18T06:22:42.172Z,10.00
2023-02-18T06:25:46.096Z,20.73
2023-02-18T06:28:50.085Z,14.83
2023-02-18T06:31:53.888Z,13.33
2023-02-18T06:34:57.777Z,14.47
2023-02-18T06:38:02.962Z,10.53
2023-02-18T06:41:07.436Z,17.47
2023-02-18T06:44:11.446Z,9.13
2023-02-18T06:47:15.274Z,10.77
2023-02-18T06:50:19.733Z,13.37
2023-02-18T06:53:25.030Z,5.40
2023-02-18T06:56:30.912Z,9.30
2023-02-18T06:59:35.210Z,8.00
2023-02-18T07:02:39.177Z,10.60
2023-02-18T07:05:52.747Z,10.77
2023-02-18T07:08:58.474Z,10.23
2023-02-18T07:12:16.398Z,10.07
2023-02-18T07:15:24.572Z,13.37
2023-02-18T07:18:28.379Z,8.97
2023-02-18T07:21:32.293Z,12.20
2023-02-18T07:24:38.416Z,12.60
2023-02-18T07:27:42.619Z,11.40
2023-02-18T07:30:46.741Z,9.87
2023-02-18T07:33:50.628Z,11.13
2023-02-18T07:36:54.413Z,7.27
2023-02-18T07:39:59.867Z,12.13
2023-02-18T07:43:05.901Z,12.70
2023-02-18T07:46:13.437Z,11.57
2023-02-18T07:49:19.970Z,13.47
2023-02-18T07:52:35.420Z,12.63
2023-02-18T07:55:50.648Z,16.27
2023-02-18T07:58:54.578Z,17.33
2023-02-18T08:01:58.527Z,16.33
2023-02-18T08:05:02.352Z,19.83
2023-02-18T08:08:06.682Z,24.83
2023-02-18T08:11:18.833Z,25.93
2023-02-18T08:14:23.451Z,29.67
2023-02-18T08:17:27.271Z,33.63
2023-02-18T08:20:31.192Z,34.30
2023-02-18T08:23:35.827Z,30.83
2023-02-18T08:26:54.310Z,33.20
2023-02-18T08:30:03.387Z,30.93
2023-02-18T08:33:07.319Z,32.37
2023-02-18T08:36:11.790Z,33.10
2023-02-18T08:39:15.647Z,33.53
2023-02-18T08:42:20.917Z,33.07
2023-02-18T08:45:24.801Z,29.73
2023-02-18T08:48:29.537Z,31.63
2023-02-18T08:51:33.603Z,27.93
2023-02-18T08:54:52.166Z,33.07
2023-02-18T08:58:07.902Z,29.40
2023-02-18T09:01:29.714Z,21.33
2023-02-18T09:04:45.750Z,24.63
2023-02-18T09:07:49.642Z,18.87
2023-02-18T09:11:42.127Z,20.77
2023-02-18T09:15:10.816Z,19.70
2023-02-18T09:18:50.752Z,14.63
2023-02-18T09:22:05.523Z,20.57
2023-02-18T09:25:26.338Z,16.77
2023-02-18T09:29:04.473Z,18.17
2023-02-18T09:32:50.582Z,13.80
2023-02-18T09:36:08.177Z,17.17
2023-02-18T09:39:15.896Z,12.70
2023-02-18T09:42:25.920Z,15.57
2023-02-18T09:45:30.455Z,9.87
2023-02-18T09:48:38.804Z,13.03
2023-02-18T09:51:42.732Z,11.83
2023-02-18T09:54:46.687Z,9.40
2023-02-18T09:57:54.394Z,5.50
2023-02-18T10:01:15.994Z,8.83
2023-02-18T10:04:25.035Z,5.27
2023-02-18T10:07:33.247Z,4.87
2023-02-18T10:10:43.891Z,5.23
2023-02-18T10:13:48.359Z,7.00
2023-02-18T10:16:55.593Z,5.30
2023-02-18T10:20:07.866Z,7.07
2023-02-18T10:23:15.164Z,9.30
2023-02-18T10:26:20.899Z,9.03
2023-02-18T10:29:26.809Z,9.10
2023-02-18T10:32:39.234Z,8.93
2023-02-18T10:35:54.675Z,10.07
2023-02-18T10:39:32.981Z,11.57
2023-02-18T10:42:56.242Z,7.57
2023-02-18T10:46:13.950Z,8.97
2023-02-18T10:49:48.396Z,11.77
2023-02-18T10:53:01.120Z,7.50
2023-02-18T10:56:07.033Z,8.30
2023-02-18T10:59:20.779Z,7.07
2023-02-18T11:02:30.973Z,5.87
2023-02-18T11:05:38.272Z,5.57
2023-02-18T11:08:47.333Z,6.93
2023-02-18T11:12:01.356Z,5.53
2023-02-18T11:15:22.412Z,5.33
2023-02-18T11:18:37.907Z,5.47
2023-02-18T11:21:41.864Z,2.73
2023-02-18T11:24:50.396Z,4.03
2023-02-18T11:27:58.775Z,3.53
2023-02-18T11:31:06.030Z,5.97
2023-02-18T11:34:18.656Z,3.50
2023-02-18T11:37:24.632Z,3.10
2023-02-18T11:40:33.777Z,2.57
2023-02-18T11:43:42.282Z,5.27
2023-02-18T11:46:59.561Z,5.50
2023-02-18T11:50:23.581Z,6.53
2023-02-18T11:53:31.924Z,12.47
2023-02-18T11:56:39.725Z,10.40
2023-02-18T11:59:45.626Z,6.80
2023-02-18T12:02:49.880Z,7.33
2023-02-18T12:05:54.128Z,8.83
2023-02-18T12:09:04.951Z,11.20
2023-02-18T12:12:19.030Z,7.40
2023-02-18T12:15:35.471Z,4.93
2023-02-18T12:19:03.632Z,4.37
2023-02-18T12:22:23.011Z,5.80
2023-02-18T12:25:41.177Z,6.87
2023-02-18T12:29:06.547Z,6.60
2023-02-18T12:32:26.243Z,7.40
2023-02-18T12:35:53.615Z,6.47
2023-02-18T12:39:12.648Z,3.33
2023-02-18T12:42:36.045Z,5.17
2023-02-18T12:46:30.309Z,9.87
2023-02-18T12:50:23.666Z,4.80
2023-02-18T12:53:57.199Z,8.70
2023-02-18T12:57:24.469Z,7.53
2023-02-18T13:01:42.992Z,8.57
2023-02-18T13:06:04.371Z,6.07
2023-02-18T13:10:18.518Z,6.90
2023-02-18T13:14:26.837Z,8.17
2023-02-18T13:17:55.276Z,10.23
2023-02-18T13:21:14.910Z,13.03
2023-02-18T13:25:11.628Z,7.73
2023-02-18T13:28:30.594Z,8.23
2023-02-18T13:32:03.844Z,18.23
2023-02-18T13:36:08.566Z,12.30
2023-02-18T13:39:37.065Z,12.03
2023-02-18T13:42:40.834Z,6.57
2023-02-18T13:46:53.012Z,13.07
2023-02-18T13:51:24.402Z,10.60
2023-02-18T13:55:17.086Z,10.27
2023-02-18T13:59:34.826Z,9.30
2023-02-18T14:04:01.902Z,6.30
2023-02-18T14:08:40.837Z,14.23
2023-02-18T14:13:07.490Z,7.57
2023-02-18T14:17:33.126Z,13.47
2023-02-18T14:22:19.240Z,9.90
2023-02-18T14:25:41.667Z,14.10
2023-02-18T14:29:40.171Z,11.80
2023-02-18T14:33:37.935Z,8.57
2023-02-18T14:38:15.140Z,11.00
2023-02-18T14:42:25.182Z,10.10
2023-02-18T14:47:18.989Z,10.53
2023-02-18T14:51:37.588Z,6.20
2023-02-18T14:55:35.943Z,15.13
2023-02-18T14:59:39.659Z,9.37
2023-02-18T15:03:42.453Z,5.10
2023-02-18T15:07:51.862Z,8.47
2023-02-18T15:11:47.742Z,11.40
2023-02-18T15:15:06.809Z,5.20
2023-02-18T15:18:28.580Z,9.10
2023-02-18T15:21:41.121Z,11.37
2023-02-18T15:24:46.186Z,7.23
2023-02-18T15:27:55.121Z,6.47
2023-02-18T15:31:01.118Z,7.50
2023-02-18T15:34:36.194Z,5.80
2023-02-18T15:37:40.090Z,5.13
2023-02-18T15:40:48.354Z,7.60
2023-02-18T15:44:02.208Z,4.70
2023-02-18T15:47:10.872Z,5.07
2023-02-18T15:50:26.243Z,7.70
2023-02-18T15:53:31.900Z,5.17
2023-02-18T15:56:40.447Z,10.03
2023-02-18T15:59:55.793Z,10.37
2023-02-18T16:03:14.432Z,6.87
2023-02-18T16:06:25.512Z,5.63
2023-02-18T16:09:34.294Z,5.57
2023-02-18T16:12:40.882Z,9.17
2023-02-18T16:15:50.800Z,8.10
2023-02-18T16:18:54.997Z,7.63
2023-02-18T16:22:06.540Z,6.90
2023-02-18T16:25:20.405Z,7.33
2023-02-18T16:28:28.965Z,9.47
2023-02-18T16:31:32.750Z,4.83
2023-02-18T16:34:37.055Z,7.90
2023-02-18T16:37:46.096Z,10.50
2023-02-18T16:40:50.892Z,8.67
2023-02-18T16:43:54.708Z,7.20
2023-02-18T16:46:59.291Z,5.53
2023-02-18T16:50:03.382Z,2.63
2023-02-18T16:53:08.615Z,4.43
2023-02-18T16:56:18.950Z,6.60
2023-02-18T16:59:22.776Z,3.37
2023-02-18T17:02:33.091Z,6.47
2023-02-18T17:05:40.241Z,4.53
2023-02-18T17:08:46.045Z,6.33
2023-02-18T17:11:53.503Z,6.30
2023-02-18T17:14:57.296Z,7.63
2023-02-18T17:18:01.908Z,8.33
2023-02-18T17:21:06.501Z,5.50
2023-02-18T17:24:14.637Z,7.33
2023-02-18T17:27:18.562Z,6.60
2023-02-18T17:30:22.344Z,4.67
2023-02-18T17:33:27.241Z,6.47
2023-02-18T17:36:31.103Z,4.57
2023-02-18T17:39:36.389Z,3.77
2023-02-18T17:42:40.126Z,5.03
2023-02-18T17:45:51.821Z,6.03
2023-02-18T17:48:55.613Z,5.67
2023-02-18T17:51:59.658Z,5.57
2023-02-18T17:55:23.969Z,10.60
2023-02-18T17:58:28.407Z,9.67
2023-02-18T18:01:32.389Z,3.87
2023-02-18T18:04:36.316Z,6.53
2023-02-18T18:07:40.164Z,5.63
2023-02-18T18:10:53.353Z,4.17
2023-02-18T18:13:58.121Z,5.63
2023-02-18T18:17:03.118Z,7.67
2023-02-18T18:20:09.723Z,5.33
2023-02-18T18:23:16.444Z,3.47
2023-02-18T18:26:22.056Z,7.67
2023-02-18T18:29:26.586Z,7.93
2023-02-18T18:32:30.716Z,7.10
2023-02-18T18:35:38.520Z,8.40
2023-02-18T18:38:42.409Z,9.83
2023-02-18T18:41:48.125Z,8.77
2023-02-18T18:44:52.121Z,10.77
2023-02-18T18:47:56.817Z,9.70
2023-02-18T18:51:02.730Z,7.70
2023-02-18T18:54:07.090Z,7.20
2023-02-18T18:57:12.313Z,7.47
2023-02-18T19:00:19.754Z,8.80
2023-02-18T19:03:25.425Z,11.40
2023-02-18T19:06:29.182Z,9.57
2023-02-18T19:09:32.988Z,9.20
2023-02-18T19:12:38.193Z,8.27
2023-02-18T19:15:42.542Z,8.83
2023-02-18T19:18:47.011Z,5.80
2023-02-18T19:21:50.814Z,8.07
2023-02-18T19:24:54.563Z,9.60
2023-02-18T19:28:00.129Z,8.73
2023-02-18T19:31:08.270Z,10.00
2023-02-18T19:34:12.187Z,7.20
2023-02-18T19:37:15.989Z,7.77
2023-02-18T19:40:23.835Z,7.83
2023-02-18T19:43:29.146Z,8.93
2023-02-18T19:46:33.147Z,8.87
2023-02-18T19:49:36.952Z,11.33
2023-02-18T19:52:41.146Z,8.57
2023-02-18T19:55:44.921Z,7.77
2023-02-18T19:58:50.117Z,9.23
2023-02-18T20:01:54.758Z,9.77
2023-02-18T20:05:01.692Z,7.67
2023-02-18T20:08:05.572Z,7.90
2023-02-18T20:11:09.660Z,8.80
2023-02-18T20:14:15.715Z,8.57
2023-02-18T20:17:20.816Z,9.17
2023-02-18T20:20:26.959Z,7.90
2023-02-18T20:23:32.243Z,11.37
2023-02-18T20:26:36.237Z,10.33
2023-02-18T20:29:41.649Z,9.07
2023-02-18T20:32:45.406Z,11.10
2023-02-18T20:35:57.274Z,11.07
2023-02-18T20:39:15.346Z,8.93
2023-02-18T20:42:28.279Z,6.97
2023-02-18T20:45:57.602Z,8.47
2023-02-18T20:49:03.040Z,11.90
2023-02-18T20:52:08.165Z,9.60
2023-02-18T20:55:12.073Z,7.60
2023-02-18T20:58:16.139Z,8.10
2023-02-18T21:01:24.307Z,8.73
2023-02-18T21:04:28.546Z,10.20
2023-02-18T21:07:34.590Z,7.07
2023-02-18T21:10:41.827Z,7.30
2023-02-18T21:13:48.168Z,8.53
2023-02-18T21:16:53.335Z,7.77
2023-02-18T21:19:57.318Z,8.67
2023-02-18T21:23:02.545Z,8.27
2023-02-18T21:26:10.705Z,6.40
2023-02-18T21:29:17.041Z,7.43
2023-02-18T21:32:22.710Z,10.63
2023-02-18T21:35:27.388Z,8.83
2023-02-18T21:38:31.187Z,8.10
2023-02-18T21:41:40.101Z,8.37
2023-02-18T21:44:44.530Z,8.47
2023-02-18T21:47:49.985Z,7.77
2023-02-18T21:50:53.807Z,11.80
2023-02-18T21:53:57.679Z,9.43
2023-02-18T21:57:05.000Z,7.50
2023-02-18T22:00:19.964Z,8.50
2023-02-18T22:03:25.991Z,9.57
2023-02-18T22:06:29.781Z,7.47
2023-02-18T22:09:33.650Z,12.97
2023-02-18T22:12:37.637Z,7.63
2023-02-18T22:15:42.144Z,8.43
2023-02-18T22:18:47.515Z,7.57
2023-02-18T22:21:51.367Z,11.53
2023-02-18T22:24:55.137Z,11.90
2023-02-18T22:27:58.894Z,11.13
2023-02-18T22:31:07.631Z,13.37
2023-02-18T22:34:13.071Z,12.17
2023-02-18T22:37:16.851Z,15.17
2023-02-18T22:40:20.875Z,13.63
2023-02-18T22:43:24.744Z,17.40
2023-02-18T22:46:30.258Z,14.07
2023-02-18T22:49:35.430Z,15.67
2023-02-18T22:52:39.132Z,13.23
2023-02-18T22:55:42.843Z,13.03
2023-02-18T22:58:49.162Z,16.00
2023-02-18T23:01:53.596Z,15.77
2023-02-18T23:04:58.823Z,12.83
2023-02-18T23:08:04.309Z,17.57
2023-02-18T23:11:12.525Z,18.67
2023-02-18T23:14:21.724Z,17.07
2023-02-18T23:17:25.557Z,14.67
2023-02-18T23:20:48.130Z,18.53
2023-02-18T23:23:55.268Z,16.23
2023-02-18T23:26:59.109Z,17.33
2023-02-18T23:30:03.058Z,15.63
2023-02-18T23:33:06.872Z,17.20
2023-02-18T23:36:15.856Z,14.60
2023-02-18T23:39:21.833Z,14.57
2023-02-18T23:42:25.710Z,16.67
2023-02-18T23:45:29.865Z,16.23
2023-02-18T23:48:38.420Z,18.27
2023-02-18T23:51:44.373Z,15.17
2023-02-18T23:54:48.229Z,15.47
2023-02-18T23:57:51.919Z,19.40
